Leopard Sea — 9VNR4 — position and weather

sailwx.info

Track history (hours):
 
Tides and Currents Weather Stations Pressure Air Temp Water Temp Dewpoint Dewpoint Depression Visibility Wind Speed Wind Dir Waves Ship Positions

Leopard Sea

Last reported at 2018-Feb-11 01:47 UTC. Time now 2018-Feb-18 03:25 UTC.
Position N 04°58' E 001°42'.

Length 183 m; draft 10.6 m.

Type: Ship. MMSI: 563200000.

Date/timePositionNaut miles runAvg speedWind from/ knotsBaromVisibWave heightAir tempDewpointWater temp
2018-Feb-11 01:47N 04°58' E 001°42'  
2018-Feb-04 00:49N 06°17' E 003°13'0 0.0
2018-Feb-03 17:04N 06°17' E 003°13'0 0.0
2018-Feb-03 16:40N 06°17' E 003°13'0 0.0
2018-Feb-03 15:58N 06°17' E 003°13'0 0.0
2018-Feb-03 15:28N 06°17' E 003°13'0 0.0
2018-Feb-03 14:58N 06°17' E 003°13'0 0.0
2018-Feb-02 21:28N 06°17' E 003°13'11 2.9
2018-Feb-02 17:53N 06°18' E 003°23'11 0.5
2018-Feb-01 19:11N 06°17' E 003°12'0 0.1
2018-Feb-01 18:59N 06°17' E 003°12'6 4.6
2018-Feb-01 17:35N 06°11' E 003°12'2012.7
2018-Feb-01 16:02N 05°51' E 003°12'913.1
2018-Feb-01 15:20N 05°42' E 003°12'5712.2
2018-Feb-01 10:40N 05°13' E 002°23'313.1
2018-Feb-01 10:29N 05°12' E 002°21'613.1
2018-Feb-01 10:00N 05°10' E 002°15'613.1
2018-Feb-01 09:30N 05°08' E 002°09'1613.3
2018-Feb-01 08:18N 05°02' E 001°54'1113.4
2018-Feb-01 07:30N 04°59' E 001°44'713.2
2018-Feb-01 07:00N 04°56' E 001°37'713.3
2018-Feb-01 06:30N 04°54' E 001°31'813.3
2018-Feb-01 05:54N 04°52' E 001°23'513.2
2018-Feb-01 05:29N 04°50' E 001°18'613.1
2018-Feb-01 05:00N 04°48' E 001°12'1113.1
2018-Feb-01 04:10N 04°44' E 001°02'213.2
2018-Feb-01 04:00N 04°44' E 000°60'1313.1
2018-Feb-01 03:00N 04°39' E 000°47'713.2
2018-Feb-01 02:30N 04°37' E 000°41'713.5
2018-Feb-01 01:57N 04°35' E 000°34'  
Track history (hours):
 
Tides and Currents Weather Stations Pressure Air Temp Water Temp Dewpoint Dewpoint Depression Visibility Wind Speed Wind Dir Waves Ship Positions

Leopard Sea

Last reported at 2018-Feb-11 01:47 UTC. Time now 2018-Feb-18 03:25 UTC.
Position N 04°58' E 001°42'.

Length 183 m; draft 10.6 m.

Type: Ship. MMSI: 563200000.

Date/timePositionNaut miles runAvg speedWind from/ knotsBaromVisibWave heightAir tempDewpointWater temp
2018-Feb-11 01:47N 04°58' E 001°42'  
2018-Feb-04 00:49N 06°17' E 003°13'0 0.0
2018-Feb-03 17:04N 06°17' E 003°13'0 0.0
2018-Feb-03 16:40N 06°17' E 003°13'0 0.0
2018-Feb-03 15:58N 06°17' E 003°13'0 0.0
2018-Feb-03 15:28N 06°17' E 003°13'0 0.0
2018-Feb-03 14:58N 06°17' E 003°13'0 0.0
2018-Feb-02 21:28N 06°17' E 003°13'11 2.9
2018-Feb-02 17:53N 06°18' E 003°23'11 0.5
2018-Feb-01 19:11N 06°17' E 003°12'0 0.1
2018-Feb-01 18:59N 06°17' E 003°12'6 4.6
2018-Feb-01 17:35N 06°11' E 003°12'2012.7
2018-Feb-01 16:02N 05°51' E 003°12'913.1
2018-Feb-01 15:20N 05°42' E 003°12'5712.2
2018-Feb-01 10:40N 05°13' E 002°23'313.1
2018-Feb-01 10:29N 05°12' E 002°21'613.1
2018-Feb-01 10:00N 05°10' E 002°15'613.1
2018-Feb-01 09:30N 05°08' E 002°09'1613.3
2018-Feb-01 08:18N 05°02' E 001°54'1113.4
2018-Feb-01 07:30N 04°59' E 001°44'713.2
2018-Feb-01 07:00N 04°56' E 001°37'713.3
2018-Feb-01 06:30N 04°54' E 001°31'813.3
2018-Feb-01 05:54N 04°52' E 001°23'513.2
2018-Feb-01 05:29N 04°50' E 001°18'613.1
2018-Feb-01 05:00N 04°48' E 001°12'1113.1
2018-Feb-01 04:10N 04°44' E 001°02'213.2
2018-Feb-01 04:00N 04°44' E 000°60'1313.1
2018-Feb-01 03:00N 04°39' E 000°47'713.2
2018-Feb-01 02:30N 04°37' E 000°41'713.5
2018-Feb-01 01:57N 04°35' E 000°34'  

Dump ship's entire track history